Weather - Helsinki Query any day in the database

Current weather  

Weather data for a selected day (2006-01-01 -2020-12-04)
Enter date:     <-     scroll days         ->
day curves
Low temperature°C -1.018:50
High temperature°C +1.023:50
Low wind chill°C -6.618:50
Average temperature°C +0.2 
High wind speed (10 min) m/s 8.022:20
Low pressurehPa 986.000:20
High pressurehPa 997.017:50
Low R.H% 8009:20
High R.H% 10007:50
High precipitation (1h)mm 0.101:50
Total precipitation of the daymm 0.1 
Day weather data as a table
Date Time Temp
°C
Chill
°C
Pressure
hPA
Wind
m/s
Hum
%
Precip
mm
2016-02-01 23:50:00 1.0  -4.7  990.0 7.2 86 -
2016-02-01 23:20:00 1.0  -4.5  991.0 6.7 86 -
2016-02-01 22:50:00 1.0  -4.9  992.0 7.6 86 -
2016-02-01 22:20:00 0.0  -6.3  993.0 8.0 92 -
2016-02-01 21:50:00 0.0  -6.2  993.0 7.6 92 -
2016-02-01 21:20:00 0.0  -5.8  994.0 6.7 92 -
2016-02-01 20:50:00 1.0  -4.7  994.0 7.2 86 -
2016-02-01 20:20:00 0.0  -5.8  995.0 6.7 92 -
2016-02-01 19:50:00 0.0  -5.8  995.0 6.7 92 -
2016-02-01 19:20:00 0.0  -5.8  995.0 6.7 92 -
2016-02-01 18:50:00 -1.0  -6.6  996.0 5.8 92 -
2016-02-01 18:20:00 -1.0  -6.6  996.0 5.8 92 -
2016-02-01 17:50:00 -1.0  -6.4  997.0 5.4 92 -
2016-02-01 17:20:00 -1.0  -5.9  997.0 4.5 92 -
2016-02-01 16:50:00 -1.0  -5.5  997.0 4.0 92 -
2016-02-01 16:20:00 -1.0  -4.8  997.0 3.1 92 -
2016-02-01 15:50:00 -1.0  -4.4  997.0 2.7 92 -
2016-02-01 15:20:00 0.0  -4.3  997.0 4.0 86 -
2016-02-01 14:50:00 0.0  -4.3  997.0 4.0 86 -
2016-02-01 14:20:00 1.0  -2.8  996.0 3.6 80 -
2016-02-01 13:50:00 1.0  -2.4  996.0 3.1 80 -
2016-02-01 13:20:00 1.0  -2.4  996.0 3.1 80 -
2016-02-01 12:50:00 1.0  -2.8  996.0 3.6 80 -
2016-02-01 12:20:00 1.0  -2.0  996.0 2.7 80 -
2016-02-01 11:50:00 0.0  -3.6  995.0 3.1 86 -
2016-02-01 11:20:00 0.0  -3.2  995.0 2.7 86 -
2016-02-01 10:50:00 0.0  -4.0  995.0 3.6 86 -
2016-02-01 10:20:00 0.0  -4.0  994.0 3.6 86 -
2016-02-01 09:50:00 0.0  -3.6  994.0 3.1 92 -
2016-02-01 09:20:00 1.0  -2.4  993.0 3.1 80 -
2016-02-01 08:50:00 0.0  -3.2  993.0 2.7 92 -
2016-02-01 08:20:00 0.0  -1.4  992.0 1.3 92 -
2016-02-01 07:50:00 0.0  -3.2  991.0 2.7 100 -
2016-02-01 07:20:00 0.0  -2.7  991.0 2.2 100 -
2016-02-01 06:50:00 0.0  -1.4  990.0 1.3 100 -
2016-02-01 06:20:00 0.0  0.0  990.0 0.4 100 -
2016-02-01 05:50:00 0.0  -1.4  990.0 1.3 100 -
2016-02-01 05:20:00 0.0  -1.4  989.0 1.3 100 -
2016-02-01 04:50:00 0.0  -2.7  989.0 2.2 100 -
2016-02-01 04:20:00 1.0  -0.3  988.0 1.3 93 -
2016-02-01 03:50:00 0.0  -1.4  988.0 1.3 100 -
2016-02-01 03:20:00 0.0  -3.6  988.0 3.1 100 -
2016-02-01 02:50:00 1.0  -1.5  987.0 2.2 93 -
2016-02-01 02:20:00 1.0  -2.8  987.0 3.6 93 -
2016-02-01 01:50:00 0.0  -4.3  987.0 4.0 100 0.1
2016-02-01 01:20:00 0.0  -5.2  987.0 5.4 100 -
2016-02-01 00:50:00 1.0  -3.9  987.0 5.4 93 -
2016-02-01 00:20:00 1.0  -3.9  986.0 5.4 93 -
Unit conversions: